<?xml version="1.0" encoding="UTF-8" standalone="no" ?>
<gpx xmlns="http://www.topografix.com/GPX/1/1" xmlns:xsi="http://www.w3.org/2001/XMLSchema-instance" xsi:schemaLocation="http://www.topografix.com/GPX/1/1 http://www.topografix.com/GPX/1/1/gpx.xsd" version="1.1" creator="VisuGPX - https://www.visugpx.com">
  <metadata>
    <name>Ligne 3  Gardiol - Crêts de Champel </name>
  </metadata>
  <trk>
    <name><![CDATA[ligne 3 aller Gardiol - Crêts-de-Champel 2018_Sans titre - Trajet]]></name>
    <trkseg>
      <trkpt lat="46.22893" lon="6.12101">
        <ele>451.9</ele>
        <time>2020-05-07T12:24:22.000Z</time>
      </trkpt>
      <trkpt lat="46.22871" lon="6.12134">
        <ele>451.2</ele>
        <time>2020-05-07T12:24:26.052Z</time>
      </trkpt>
      <trkpt lat="46.22893" lon="6.12101">
        <ele>451.9</ele>
        <time>2020-05-07T12:24:33.646Z</time>
      </trkpt>
      <trkpt lat="46.22901" lon="6.12089">
        <ele>452.6</ele>
        <time>2020-05-07T12:24:37.789Z</time>
      </trkpt>
      <trkpt lat="46.22903" lon="6.12084">
        <ele>452.8</ele>
        <time>2020-05-07T12:24:39.125Z</time>
      </trkpt>
      <trkpt lat="46.22904" lon="6.12078">
        <ele>452.6</ele>
        <time>2020-05-07T12:24:39.550Z</time>
      </trkpt>
      <trkpt lat="46.22903" lon="6.12071">
        <ele>452.3</ele>
        <time>2020-05-07T12:24:39.988Z</time>
      </trkpt>
      <trkpt lat="46.22901" lon="6.12067">
        <ele>452.1</ele>
        <time>2020-05-07T12:24:40.296Z</time>
      </trkpt>
      <trkpt lat="46.22898" lon="6.12062">
        <ele>451.8</ele>
        <time>2020-05-07T12:24:40.687Z</time>
      </trkpt>
      <trkpt lat="46.22894" lon="6.12055">
        <ele>451.5</ele>
        <time>2020-05-07T12:24:41.307Z</time>
      </trkpt>
      <trkpt lat="46.22785" lon="6.11909">
        <ele>444.6</ele>
        <time>2020-05-07T12:24:56.158Z</time>
      </trkpt>
      <trkpt lat="46.22782" lon="6.11905">
        <ele>444.7</ele>
        <time>2020-05-07T12:24:57.164Z</time>
      </trkpt>
      <trkpt lat="46.22779" lon="6.11903">
        <ele>444.7</ele>
        <time>2020-05-07T12:24:57.795Z</time>
      </trkpt>
      <trkpt lat="46.22775" lon="6.11901">
        <ele>444.7</ele>
        <time>2020-05-07T12:24:58.604Z</time>
      </trkpt>
      <trkpt lat="46.22772" lon="6.119">
        <ele>444.8</ele>
        <time>2020-05-07T12:24:59.441Z</time>
      </trkpt>
      <trkpt lat="46.22769" lon="6.11901">
        <ele>444.9</ele>
        <time>2020-05-07T12:25:00.279Z</time>
      </trkpt>
      <trkpt lat="46.22766" lon="6.11903">
        <ele>445</ele>
        <time>2020-05-07T12:25:01.152Z</time>
      </trkpt>
      <trkpt lat="46.22763" lon="6.11906">
        <ele>445.1</ele>
        <time>2020-05-07T12:25:02.083Z</time>
      </trkpt>
      <trkpt lat="46.22758" lon="6.11913">
        <ele>445.5</ele>
        <time>2020-05-07T12:25:04.529Z</time>
      </trkpt>
      <trkpt lat="46.22725" lon="6.11964">
        <ele>448.1</ele>
        <time>2020-05-07T12:25:21.084Z</time>
      </trkpt>
      <trkpt lat="46.22713" lon="6.11983">
        <ele>448.4</ele>
        <time>2020-05-07T12:25:25.106Z</time>
      </trkpt>
      <trkpt lat="46.22704" lon="6.11996">
        <ele>448.6</ele>
        <time>2020-05-07T12:25:27.946Z</time>
      </trkpt>
      <trkpt lat="46.227" lon="6.12002">
        <ele>450.1</ele>
        <time>2020-05-07T12:25:32.195Z</time>
      </trkpt>
      <trkpt lat="46.22698" lon="6.12007">
        <ele>450.2</ele>
        <time>2020-05-07T12:25:33.186Z</time>
      </trkpt>
      <trkpt lat="46.22697" lon="6.1201">
        <ele>450.2</ele>
        <time>2020-05-07T12:25:33.626Z</time>
      </trkpt>
      <trkpt lat="46.22697" lon="6.12015">
        <ele>450.3</ele>
        <time>2020-05-07T12:25:34.525Z</time>
      </trkpt>
      <trkpt lat="46.22698" lon="6.12019">
        <ele>450.4</ele>
        <time>2020-05-07T12:25:35.341Z</time>
      </trkpt>
      <trkpt lat="46.22699" lon="6.12023">
        <ele>450.4</ele>
        <time>2020-05-07T12:25:35.904Z</time>
      </trkpt>
      <trkpt lat="46.22701" lon="6.12027">
        <ele>450.5</ele>
        <time>2020-05-07T12:25:36.795Z</time>
      </trkpt>
      <trkpt lat="46.22725" lon="6.1206">
        <ele>451</ele>
        <time>2020-05-07T12:25:44.140Z</time>
      </trkpt>
      <trkpt lat="46.22818" lon="6.12182">
        <ele>452.9</ele>
        <time>2020-05-07T12:26:11.999Z</time>
      </trkpt>
      <trkpt lat="46.22845" lon="6.12218">
        <ele>452.2</ele>
        <time>2020-05-07T12:26:16.862Z</time>
      </trkpt>
      <trkpt lat="46.22846" lon="6.12221">
        <ele>452.2</ele>
        <time>2020-05-07T12:26:17.302Z</time>
      </trkpt>
      <trkpt lat="46.22847" lon="6.12226">
        <ele>452.3</ele>
        <time>2020-05-07T12:26:18.225Z</time>
      </trkpt>
      <trkpt lat="46.22847" lon="6.1223">
        <ele>452.4</ele>
        <time>2020-05-07T12:26:19.015Z</time>
      </trkpt>
      <trkpt lat="46.22846" lon="6.12236">
        <ele>452.5</ele>
        <time>2020-05-07T12:26:20.054Z</time>
      </trkpt>
      <trkpt lat="46.22843" lon="6.12244">
        <ele>452.6</ele>
        <time>2020-05-07T12:26:21.461Z</time>
      </trkpt>
      <trkpt lat="46.22809" lon="6.1231">
        <ele>459.1</ele>
        <time>2020-05-07T12:26:54.286Z</time>
      </trkpt>
      <trkpt lat="46.22808" lon="6.12313">
        <ele>459.2</ele>
        <time>2020-05-07T12:26:55.016Z</time>
      </trkpt>
      <trkpt lat="46.22806" lon="6.12315">
        <ele>459.3</ele>
        <time>2020-05-07T12:26:55.762Z</time>
      </trkpt>
      <trkpt lat="46.22803" lon="6.12315">
        <ele>459.3</ele>
        <time>2020-05-07T12:26:56.335Z</time>
      </trkpt>
      <trkpt lat="46.228" lon="6.12315">
        <ele>459.4</ele>
        <time>2020-05-07T12:26:57.160Z</time>
      </trkpt>
      <trkpt lat="46.22794" lon="6.12313">
        <ele>459.5</ele>
        <time>2020-05-07T12:26:58.543Z</time>
      </trkpt>
      <trkpt lat="46.22787" lon="6.1231">
        <ele>459.6</ele>
        <time>2020-05-07T12:27:00.138Z</time>
      </trkpt>
      <trkpt lat="46.22778" lon="6.12304">
        <ele>459.6</ele>
        <time>2020-05-07T12:27:02.032Z</time>
      </trkpt>
      <trkpt lat="46.22768" lon="6.12298">
        <ele>459.7</ele>
        <time>2020-05-07T12:27:04.292Z</time>
      </trkpt>
      <trkpt lat="46.22759" lon="6.12291">
        <ele>459.5</ele>
        <time>2020-05-07T12:27:05.637Z</time>
      </trkpt>
      <trkpt lat="46.22751" lon="6.12282">
        <ele>459.1</ele>
        <time>2020-05-07T12:27:06.717Z</time>
      </trkpt>
      <trkpt lat="46.22737" lon="6.12268">
        <ele>458.8</ele>
        <time>2020-05-07T12:27:09.010Z</time>
      </trkpt>
      <trkpt lat="46.22721" lon="6.12249">
        <ele>457.4</ele>
        <time>2020-05-07T12:27:10.923Z</time>
      </trkpt>
      <trkpt lat="46.22715" lon="6.12242">
        <ele>457.4</ele>
        <time>2020-05-07T12:27:12.396Z</time>
      </trkpt>
      <trkpt lat="46.22708" lon="6.12233">
        <ele>457.3</ele>
        <time>2020-05-07T12:27:13.773Z</time>
      </trkpt>
      <trkpt lat="46.22699" lon="6.12222">
        <ele>457.3</ele>
        <time>2020-05-07T12:27:16.025Z</time>
      </trkpt>
      <trkpt lat="46.22694" lon="6.12215">
        <ele>457.3</ele>
        <time>2020-05-07T12:27:17.355Z</time>
      </trkpt>
      <trkpt lat="46.22689" lon="6.12212">
        <ele>457.4</ele>
        <time>2020-05-07T12:27:18.601Z</time>
      </trkpt>
      <trkpt lat="46.22685" lon="6.12209">
        <ele>457.4</ele>
        <time>2020-05-07T12:27:19.462Z</time>
      </trkpt>
      <trkpt lat="46.22681" lon="6.1221">
        <ele>457.5</ele>
        <time>2020-05-07T12:27:20.463Z</time>
      </trkpt>
      <trkpt lat="46.22677" lon="6.12214">
        <ele>457.4</ele>
        <time>2020-05-07T12:27:21.096Z</time>
      </trkpt>
      <trkpt lat="46.22674" lon="6.12219">
        <ele>457.4</ele>
        <time>2020-05-07T12:27:21.971Z</time>
      </trkpt>
      <trkpt lat="46.22672" lon="6.12224">
        <ele>457.3</ele>
        <time>2020-05-07T12:27:22.465Z</time>
      </trkpt>
      <trkpt lat="46.2267" lon="6.12231">
        <ele>457.3</ele>
        <time>2020-05-07T12:27:23.466Z</time>
      </trkpt>
      <trkpt lat="46.22666" lon="6.12239">
        <ele>457.7</ele>
        <time>2020-05-07T12:27:25.884Z</time>
      </trkpt>
      <trkpt lat="46.2266" lon="6.12251">
        <ele>457.1</ele>
        <time>2020-05-07T12:27:26.807Z</time>
      </trkpt>
      <trkpt lat="46.22621" lon="6.12318">
        <ele>456.8</ele>
        <time>2020-05-07T12:27:37.566Z</time>
      </trkpt>
      <trkpt lat="46.22615" lon="6.12328">
        <ele>456.6</ele>
        <time>2020-05-07T12:27:38.739Z</time>
      </trkpt>
      <trkpt lat="46.22601" lon="6.12349">
        <ele>455.2</ele>
        <time>2020-05-07T12:27:40.603Z</time>
      </trkpt>
      <trkpt lat="46.22591" lon="6.12365">
        <ele>455</ele>
        <time>2020-05-07T12:27:42.720Z</time>
      </trkpt>
      <trkpt lat="46.22574" lon="6.12398">
        <ele>454.4</ele>
        <time>2020-05-07T12:27:46.400Z</time>
      </trkpt>
      <trkpt lat="46.22571" lon="6.12402">
        <ele>454.4</ele>
        <time>2020-05-07T12:27:47.180Z</time>
      </trkpt>
      <trkpt lat="46.22568" lon="6.12404">
        <ele>454.5</ele>
        <time>2020-05-07T12:27:48.053Z</time>
      </trkpt>
      <trkpt lat="46.22563" lon="6.12403">
        <ele>454.8</ele>
        <time>2020-05-07T12:27:49.851Z</time>
      </trkpt>
      <trkpt lat="46.22558" lon="6.124">
        <ele>455.2</ele>
        <time>2020-05-07T12:27:51.995Z</time>
      </trkpt>
      <trkpt lat="46.22552" lon="6.12395">
        <ele>455.7</ele>
        <time>2020-05-07T12:27:54.703Z</time>
      </trkpt>
      <trkpt lat="46.225" lon="6.12355">
        <ele>457.3</ele>
        <time>2020-05-07T12:28:09.687Z</time>
      </trkpt>
      <trkpt lat="46.22412" lon="6.12286">
        <ele>456.5</ele>
        <time>2020-05-07T12:28:24.943Z</time>
      </trkpt>
      <trkpt lat="46.224" lon="6.12277">
        <ele>456.2</ele>
        <time>2020-05-07T12:28:26.669Z</time>
      </trkpt>
      <trkpt lat="46.22393" lon="6.12272">
        <ele>456</ele>
        <time>2020-05-07T12:28:27.628Z</time>
      </trkpt>
      <trkpt lat="46.22387" lon="6.12269">
        <ele>456</ele>
        <time>2020-05-07T12:28:28.841Z</time>
      </trkpt>
      <trkpt lat="46.22381" lon="6.12266">
        <ele>456</ele>
        <time>2020-05-07T12:28:30.054Z</time>
      </trkpt>
      <trkpt lat="46.22374" lon="6.12265">
        <ele>456</ele>
        <time>2020-05-07T12:28:31.398Z</time>
      </trkpt>
      <trkpt lat="46.22366" lon="6.12266">
        <ele>455.9</ele>
        <time>2020-05-07T12:28:32.552Z</time>
      </trkpt>
      <trkpt lat="46.22359" lon="6.12268">
        <ele>455.9</ele>
        <time>2020-05-07T12:28:33.915Z</time>
      </trkpt>
      <trkpt lat="46.22351" lon="6.12271">
        <ele>455.9</ele>
        <time>2020-05-07T12:28:35.495Z</time>
      </trkpt>
      <trkpt lat="46.22345" lon="6.12275">
        <ele>455.9</ele>
        <time>2020-05-07T12:28:36.757Z</time>
      </trkpt>
      <trkpt lat="46.2234" lon="6.1228">
        <ele>456.1</ele>
        <time>2020-05-07T12:28:38.420Z</time>
      </trkpt>
      <trkpt lat="46.22336" lon="6.12286">
        <ele>456.4</ele>
        <time>2020-05-07T12:28:40.372Z</time>
      </trkpt>
      <trkpt lat="46.22333" lon="6.12292">
        <ele>454.8</ele>
        <time>2020-05-07T12:28:40.845Z</time>
      </trkpt>
      <trkpt lat="46.22328" lon="6.123">
        <ele>455.1</ele>
        <time>2020-05-07T12:28:43.102Z</time>
      </trkpt>
      <trkpt lat="46.22324" lon="6.12309">
        <ele>455.6</ele>
        <time>2020-05-07T12:28:45.896Z</time>
      </trkpt>
      <trkpt lat="46.22318" lon="6.12324">
        <ele>456.3</ele>
        <time>2020-05-07T12:28:50.135Z</time>
      </trkpt>
      <trkpt lat="46.22297" lon="6.12379">
        <ele>457</ele>
        <time>2020-05-07T12:28:59.877Z</time>
      </trkpt>
      <trkpt lat="46.22276" lon="6.12438">
        <ele>455.2</ele>
        <time>2020-05-07T12:29:04.782Z</time>
      </trkpt>
      <trkpt lat="46.22257" lon="6.12487">
        <ele>452.4</ele>
        <time>2020-05-07T12:29:08.371Z</time>
      </trkpt>
      <trkpt lat="46.22255" lon="6.12492">
        <ele>451.7</ele>
        <time>2020-05-07T12:29:08.740Z</time>
      </trkpt>
      <trkpt lat="46.22255" lon="6.12497">
        <ele>451.2</ele>
        <time>2020-05-07T12:29:09.060Z</time>
      </trkpt>
      <trkpt lat="46.22256" lon="6.12501">
        <ele>450.2</ele>
        <time>2020-05-07T12:29:09.332Z</time>
      </trkpt>
      <trkpt lat="46.22257" lon="6.12505">
        <ele>450.3</ele>
        <time>2020-05-07T12:29:10.148Z</time>
      </trkpt>
      <trkpt lat="46.22259" lon="6.12508">
        <ele>450.4</ele>
        <time>2020-05-07T12:29:10.955Z</time>
      </trkpt>
      <trkpt lat="46.22263" lon="6.12512">
        <ele>450.5</ele>
        <time>2020-05-07T12:29:12.101Z</time>
      </trkpt>
      <trkpt lat="46.22267" lon="6.12514">
        <ele>450.6</ele>
        <time>2020-05-07T12:29:13.133Z</time>
      </trkpt>
      <trkpt lat="46.22309" lon="6.12546">
        <ele>451</ele>
        <time>2020-05-07T12:29:22.964Z</time>
      </trkpt>
      <trkpt lat="46.22443" lon="6.12655">
        <ele>449.4</ele>
        <time>2020-05-07T12:29:45.647Z</time>
      </trkpt>
      <trkpt lat="46.22445" lon="6.12658">
        <ele>449.4</ele>
        <time>2020-05-07T12:29:46.198Z</time>
      </trkpt>
      <trkpt lat="46.22446" lon="6.12662">
        <ele>449.3</ele>
        <time>2020-05-07T12:29:46.529Z</time>
      </trkpt>
      <trkpt lat="46.22446" lon="6.12668">
        <ele>447.3</ele>
        <time>2020-05-07T12:29:46.913Z</time>
      </trkpt>
      <trkpt lat="46.22444" lon="6.12673">
        <ele>447.2</ele>
        <time>2020-05-07T12:29:47.407Z</time>
      </trkpt>
      <trkpt lat="46.22441" lon="6.12677">
        <ele>447.2</ele>
        <time>2020-05-07T12:29:48.187Z</time>
      </trkpt>
      <trkpt lat="46.2242" lon="6.12706">
        <ele>446.5</ele>
        <time>2020-05-07T12:29:51.815Z</time>
      </trkpt>
      <trkpt lat="46.22398" lon="6.12738">
        <ele>443.9</ele>
        <time>2020-05-07T12:29:54.697Z</time>
      </trkpt>
      <trkpt lat="46.22392" lon="6.12745">
        <ele>444</ele>
        <time>2020-05-07T12:29:56.369Z</time>
      </trkpt>
      <trkpt lat="46.22387" lon="6.12751">
        <ele>443.1</ele>
        <time>2020-05-07T12:29:56.970Z</time>
      </trkpt>
      <trkpt lat="46.22381" lon="6.12756">
        <ele>443.1</ele>
        <time>2020-05-07T12:29:58.293Z</time>
      </trkpt>
      <trkpt lat="46.22374" lon="6.12762">
        <ele>443.2</ele>
        <time>2020-05-07T12:30:00.045Z</time>
      </trkpt>
      <trkpt lat="46.22362" lon="6.1277">
        <ele>443.2</ele>
        <time>2020-05-07T12:30:02.571Z</time>
      </trkpt>
      <trkpt lat="46.22354" lon="6.12776">
        <ele>443.2</ele>
        <time>2020-05-07T12:30:04.293Z</time>
      </trkpt>
      <trkpt lat="46.22344" lon="6.12782">
        <ele>443.1</ele>
        <time>2020-05-07T12:30:05.915Z</time>
      </trkpt>
      <trkpt lat="46.22338" lon="6.12788">
        <ele>443.1</ele>
        <time>2020-05-07T12:30:07.309Z</time>
      </trkpt>
      <trkpt lat="46.22333" lon="6.12793">
        <ele>443</ele>
        <time>2020-05-07T12:30:08.140Z</time>
      </trkpt>
      <trkpt lat="46.22328" lon="6.12798">
        <ele>442.9</ele>
        <time>2020-05-07T12:30:08.971Z</time>
      </trkpt>
      <trkpt lat="46.22323" lon="6.12805">
        <ele>442.8</ele>
        <time>2020-05-07T12:30:09.946Z</time>
      </trkpt>
      <trkpt lat="46.22318" lon="6.12813">
        <ele>442.7</ele>
        <time>2020-05-07T12:30:11.005Z</time>
      </trkpt>
      <trkpt lat="46.22313" lon="6.12822">
        <ele>442.7</ele>
        <time>2020-05-07T12:30:12.531Z</time>
      </trkpt>
      <trkpt lat="46.22307" lon="6.12834">
        <ele>442.6</ele>
        <time>2020-05-07T12:30:14.055Z</time>
      </trkpt>
      <trkpt lat="46.22292" lon="6.12864">
        <ele>442.8</ele>
        <time>2020-05-07T12:30:19.325Z</time>
      </trkpt>
      <trkpt lat="46.22279" lon="6.12885">
        <ele>442.6</ele>
        <time>2020-05-07T12:30:22.207Z</time>
      </trkpt>
      <trkpt lat="46.22268" lon="6.12903">
        <ele>442.2</ele>
        <time>2020-05-07T12:30:24.283Z</time>
      </trkpt>
      <trkpt lat="46.22256" lon="6.12922">
        <ele>440.7</ele>
        <time>2020-05-07T12:30:25.927Z</time>
      </trkpt>
      <trkpt lat="46.22249" lon="6.12932">
        <ele>439</ele>
        <time>2020-05-07T12:30:26.836Z</time>
      </trkpt>
      <trkpt lat="46.22242" lon="6.12942">
        <ele>438.1</ele>
        <time>2020-05-07T12:30:27.745Z</time>
      </trkpt>
      <trkpt lat="46.22235" lon="6.1295">
        <ele>437.5</ele>
        <time>2020-05-07T12:30:28.570Z</time>
      </trkpt>
      <trkpt lat="46.22227" lon="6.12958">
        <ele>437.1</ele>
        <time>2020-05-07T12:30:29.591Z</time>
      </trkpt>
      <trkpt lat="46.22218" lon="6.12965">
        <ele>436.8</ele>
        <time>2020-05-07T12:30:30.796Z</time>
      </trkpt>
      <trkpt lat="46.22208" lon="6.12971">
        <ele>436.6</ele>
        <time>2020-05-07T12:30:32.240Z</time>
      </trkpt>
      <trkpt lat="46.22199" lon="6.12975">
        <ele>436.5</ele>
        <time>2020-05-07T12:30:33.625Z</time>
      </trkpt>
      <trkpt lat="46.22179" lon="6.12985">
        <ele>436.2</ele>
        <time>2020-05-07T12:30:36.599Z</time>
      </trkpt>
      <trkpt lat="46.22166" lon="6.1299">
        <ele>434.7</ele>
        <time>2020-05-07T12:30:37.841Z</time>
      </trkpt>
      <trkpt lat="46.22154" lon="6.12994">
        <ele>434.2</ele>
        <time>2020-05-07T12:30:39.140Z</time>
      </trkpt>
      <trkpt lat="46.22145" lon="6.12995">
        <ele>433.4</ele>
        <time>2020-05-07T12:30:39.974Z</time>
      </trkpt>
      <trkpt lat="46.22136" lon="6.12995">
        <ele>432.8</ele>
        <time>2020-05-07T12:30:40.735Z</time>
      </trkpt>
      <trkpt lat="46.22128" lon="6.12995">
        <ele>432.2</ele>
        <time>2020-05-07T12:30:41.474Z</time>
      </trkpt>
      <trkpt lat="46.2212" lon="6.12993">
        <ele>431.7</ele>
        <time>2020-05-07T12:30:42.189Z</time>
      </trkpt>
      <trkpt lat="46.22113" lon="6.12991">
        <ele>431.2</ele>
        <time>2020-05-07T12:30:42.848Z</time>
      </trkpt>
      <trkpt lat="46.22104" lon="6.12987">
        <ele>430.7</ele>
        <time>2020-05-07T12:30:43.736Z</time>
      </trkpt>
      <trkpt lat="46.22095" lon="6.12983">
        <ele>430.3</ele>
        <time>2020-05-07T12:30:44.711Z</time>
      </trkpt>
      <trkpt lat="46.22083" lon="6.12975">
        <ele>427.8</ele>
        <time>2020-05-07T12:30:45.932Z</time>
      </trkpt>
      <trkpt lat="46.22073" lon="6.12969">
        <ele>427.8</ele>
        <time>2020-05-07T12:30:48.001Z</time>
      </trkpt>
      <trkpt lat="46.22064" lon="6.12963">
        <ele>427.8</ele>
        <time>2020-05-07T12:30:49.895Z</time>
      </trkpt>
      <trkpt lat="46.22057" lon="6.12958">
        <ele>427.8</ele>
        <time>2020-05-07T12:30:51.387Z</time>
      </trkpt>
      <trkpt lat="46.2205" lon="6.12951">
        <ele>427.8</ele>
        <time>2020-05-07T12:30:53.013Z</time>
      </trkpt>
      <trkpt lat="46.22043" lon="6.12942">
        <ele>428</ele>
        <time>2020-05-07T12:30:55.239Z</time>
      </trkpt>
      <trkpt lat="46.22034" lon="6.1293">
        <ele>428.2</ele>
        <time>2020-05-07T12:30:57.990Z</time>
      </trkpt>
      <trkpt lat="46.22021" lon="6.12911">
        <ele>429.8</ele>
        <time>2020-05-07T12:31:06.112Z</time>
      </trkpt>
      <trkpt lat="46.21983" lon="6.12848">
        <ele>426.7</ele>
        <time>2020-05-07T12:31:11.543Z</time>
      </trkpt>
      <trkpt lat="46.21953" lon="6.128">
        <ele>425.5</ele>
        <time>2020-05-07T12:31:16.969Z</time>
      </trkpt>
      <trkpt lat="46.21939" lon="6.12779">
        <ele>425</ele>
        <time>2020-05-07T12:31:19.470Z</time>
      </trkpt>
      <trkpt lat="46.21928" lon="6.12764">
        <ele>424</ele>
        <time>2020-05-07T12:31:20.755Z</time>
      </trkpt>
      <trkpt lat="46.21912" lon="6.12742">
        <ele>422.3</ele>
        <time>2020-05-07T12:31:22.795Z</time>
      </trkpt>
      <trkpt lat="46.21891" lon="6.12715">
        <ele>423</ele>
        <time>2020-05-07T12:31:29.753Z</time>
      </trkpt>
      <trkpt lat="46.21874" lon="6.12694">
        <ele>423.6</ele>
        <time>2020-05-07T12:31:35.419Z</time>
      </trkpt>
      <trkpt lat="46.21848" lon="6.12663">
        <ele>426.9</ele>
        <time>2020-05-07T12:31:51.833Z</time>
      </trkpt>
      <trkpt lat="46.21823" lon="6.12634">
        <ele>427.5</ele>
        <time>2020-05-07T12:31:59.226Z</time>
      </trkpt>
      <trkpt lat="46.21818" lon="6.12626">
        <ele>427.6</ele>
        <time>2020-05-07T12:32:00.851Z</time>
      </trkpt>
      <trkpt lat="46.21815" lon="6.12619">
        <ele>427.7</ele>
        <time>2020-05-07T12:32:02.148Z</time>
      </trkpt>
      <trkpt lat="46.21811" lon="6.12615">
        <ele>427.8</ele>
        <time>2020-05-07T12:32:03.293Z</time>
      </trkpt>
      <trkpt lat="46.21807" lon="6.12612">
        <ele>427.8</ele>
        <time>2020-05-07T12:32:04.154Z</time>
      </trkpt>
      <trkpt lat="46.21803" lon="6.12612">
        <ele>427.8</ele>
        <time>2020-05-07T12:32:04.919Z</time>
      </trkpt>
      <trkpt lat="46.21797" lon="6.12615">
        <ele>427.7</ele>
        <time>2020-05-07T12:32:05.793Z</time>
      </trkpt>
      <trkpt lat="46.21791" lon="6.1262">
        <ele>427.6</ele>
        <time>2020-05-07T12:32:06.763Z</time>
      </trkpt>
      <trkpt lat="46.21785" lon="6.12626">
        <ele>427.4</ele>
        <time>2020-05-07T12:32:07.642Z</time>
      </trkpt>
      <trkpt lat="46.2178" lon="6.12631">
        <ele>427.3</ele>
        <time>2020-05-07T12:32:08.473Z</time>
      </trkpt>
      <trkpt lat="46.21765" lon="6.12654">
        <ele>426.4</ele>
        <time>2020-05-07T12:32:10.767Z</time>
      </trkpt>
      <trkpt lat="46.21752" lon="6.12676">
        <ele>424</ele>
        <time>2020-05-07T12:32:12.616Z</time>
      </trkpt>
      <trkpt lat="46.21743" lon="6.12693">
        <ele>423</ele>
        <time>2020-05-07T12:32:13.984Z</time>
      </trkpt>
      <trkpt lat="46.21733" lon="6.12712">
        <ele>421.9</ele>
        <time>2020-05-07T12:32:15.382Z</time>
      </trkpt>
      <trkpt lat="46.21723" lon="6.12734">
        <ele>421</ele>
        <time>2020-05-07T12:32:17.155Z</time>
      </trkpt>
      <trkpt lat="46.21713" lon="6.12755">
        <ele>417.8</ele>
        <time>2020-05-07T12:32:18.785Z</time>
      </trkpt>
      <trkpt lat="46.21704" lon="6.12776">
        <ele>417.8</ele>
        <time>2020-05-07T12:32:22.051Z</time>
      </trkpt>
      <trkpt lat="46.21698" lon="6.12791">
        <ele>417.4</ele>
        <time>2020-05-07T12:32:23.408Z</time>
      </trkpt>
      <trkpt lat="46.21688" lon="6.12816">
        <ele>416.4</ele>
        <time>2020-05-07T12:32:25.342Z</time>
      </trkpt>
      <trkpt lat="46.21677" lon="6.1285">
        <ele>413.9</ele>
        <time>2020-05-07T12:32:27.741Z</time>
      </trkpt>
      <trkpt lat="46.21665" lon="6.12881">
        <ele>416</ele>
        <time>2020-05-07T12:32:38.437Z</time>
      </trkpt>
      <trkpt lat="46.21651" lon="6.12919">
        <ele>412.5</ele>
        <time>2020-05-07T12:32:41.188Z</time>
      </trkpt>
      <trkpt lat="46.2164" lon="6.1295">
        <ele>412.3</ele>
        <time>2020-05-07T12:32:44.846Z</time>
      </trkpt>
      <trkpt lat="46.21631" lon="6.12975">
        <ele>411.6</ele>
        <time>2020-05-07T12:32:46.998Z</time>
      </trkpt>
      <trkpt lat="46.21612" lon="6.13022">
        <ele>410.1</ele>
        <time>2020-05-07T12:32:50.999Z</time>
      </trkpt>
      <trkpt lat="46.21597" lon="6.13065">
        <ele>410.9</ele>
        <time>2020-05-07T12:32:59.161Z</time>
      </trkpt>
      <trkpt lat="46.21595" lon="6.13069">
        <ele>411</ele>
        <time>2020-05-07T12:33:00.053Z</time>
      </trkpt>
      <trkpt lat="46.21592" lon="6.13073">
        <ele>411.2</ele>
        <time>2020-05-07T12:33:01.408Z</time>
      </trkpt>
      <trkpt lat="46.21589" lon="6.13075">
        <ele>411.4</ele>
        <time>2020-05-07T12:33:02.593Z</time>
      </trkpt>
      <trkpt lat="46.21586" lon="6.13074">
        <ele>411.4</ele>
        <time>2020-05-07T12:33:03.182Z</time>
      </trkpt>
      <trkpt lat="46.21581" lon="6.13072">
        <ele>412.3</ele>
        <time>2020-05-07T12:33:07.006Z</time>
      </trkpt>
      <trkpt lat="46.21574" lon="6.13067">
        <ele>412.4</ele>
        <time>2020-05-07T12:33:08.696Z</time>
      </trkpt>
      <trkpt lat="46.21553" lon="6.13055">
        <ele>412.7</ele>
        <time>2020-05-07T12:33:13.609Z</time>
      </trkpt>
      <trkpt lat="46.21509" lon="6.13034">
        <ele>413.1</ele>
        <time>2020-05-07T12:33:23.224Z</time>
      </trkpt>
      <trkpt lat="46.21493" lon="6.13027">
        <ele>413.9</ele>
        <time>2020-05-07T12:33:28.732Z</time>
      </trkpt>
      <trkpt lat="46.2147" lon="6.13013">
        <ele>413.8</ele>
        <time>2020-05-07T12:33:33.225Z</time>
      </trkpt>
      <trkpt lat="46.21451" lon="6.13001">
        <ele>413.8</ele>
        <time>2020-05-07T12:33:37.187Z</time>
      </trkpt>
      <trkpt lat="46.21428" lon="6.12986">
        <ele>413.6</ele>
        <time>2020-05-07T12:33:41.036Z</time>
      </trkpt>
      <trkpt lat="46.21412" lon="6.12976">
        <ele>412.5</ele>
        <time>2020-05-07T12:33:42.552Z</time>
      </trkpt>
      <trkpt lat="46.21392" lon="6.12964">
        <ele>412.3</ele>
        <time>2020-05-07T12:33:45.797Z</time>
      </trkpt>
      <trkpt lat="46.21385" lon="6.12961">
        <ele>412.3</ele>
        <time>2020-05-07T12:33:47.192Z</time>
      </trkpt>
      <trkpt lat="46.2138" lon="6.12959">
        <ele>412.3</ele>
        <time>2020-05-07T12:33:48.183Z</time>
      </trkpt>
      <trkpt lat="46.21375" lon="6.12959">
        <ele>412.3</ele>
        <time>2020-05-07T12:33:49.138Z</time>
      </trkpt>
      <trkpt lat="46.2137" lon="6.12962">
        <ele>412.2</ele>
        <time>2020-05-07T12:33:49.860Z</time>
      </trkpt>
      <trkpt lat="46.21367" lon="6.12965">
        <ele>412.2</ele>
        <time>2020-05-07T12:33:50.557Z</time>
      </trkpt>
      <trkpt lat="46.21363" lon="6.12973">
        <ele>412.2</ele>
        <time>2020-05-07T12:33:51.862Z</time>
      </trkpt>
      <trkpt lat="46.21358" lon="6.12983">
        <ele>412.2</ele>
        <time>2020-05-07T12:33:53.494Z</time>
      </trkpt>
      <trkpt lat="46.21319" lon="6.13065">
        <ele>415.4</ele>
        <time>2020-05-07T12:34:15.980Z</time>
      </trkpt>
      <trkpt lat="46.21255" lon="6.13197">
        <ele>416.2</ele>
        <time>2020-05-07T12:34:38.791Z</time>
      </trkpt>
      <trkpt lat="46.21209" lon="6.13293">
        <ele>416.2</ele>
        <time>2020-05-07T12:34:54.231Z</time>
      </trkpt>
      <trkpt lat="46.21182" lon="6.1335">
        <ele>415</ele>
        <time>2020-05-07T12:35:00.136Z</time>
      </trkpt>
      <trkpt lat="46.21158" lon="6.13406">
        <ele>414.2</ele>
        <time>2020-05-07T12:35:06.280Z</time>
      </trkpt>
      <trkpt lat="46.21151" lon="6.13422">
        <ele>413.7</ele>
        <time>2020-05-07T12:35:07.694Z</time>
      </trkpt>
      <trkpt lat="46.21145" lon="6.13434">
        <ele>413.2</ele>
        <time>2020-05-07T12:35:08.696Z</time>
      </trkpt>
      <trkpt lat="46.21136" lon="6.13449">
        <ele>412.7</ele>
        <time>2020-05-07T12:35:10.205Z</time>
      </trkpt>
      <trkpt lat="46.21128" lon="6.13466">
        <ele>412.5</ele>
        <time>2020-05-07T12:35:12.207Z</time>
      </trkpt>
      <trkpt lat="46.21106" lon="6.13516">
        <ele>411.3</ele>
        <time>2020-05-07T12:35:17.049Z</time>
      </trkpt>
      <trkpt lat="46.211" lon="6.13529">
        <ele>411.2</ele>
        <time>2020-05-07T12:35:18.669Z</time>
      </trkpt>
      <trkpt lat="46.21095" lon="6.13543">
        <ele>411.1</ele>
        <time>2020-05-07T12:35:20.304Z</time>
      </trkpt>
      <trkpt lat="46.21091" lon="6.13556">
        <ele>411.2</ele>
        <time>2020-05-07T12:35:22.378Z</time>
      </trkpt>
      <trkpt lat="46.21086" lon="6.13569">
        <ele>411.4</ele>
        <time>2020-05-07T12:35:24.771Z</time>
      </trkpt>
      <trkpt lat="46.21082" lon="6.13582">
        <ele>411.8</ele>
        <time>2020-05-07T12:35:27.767Z</time>
      </trkpt>
      <trkpt lat="46.21029" lon="6.13704">
        <ele>405.8</ele>
        <time>2020-05-07T12:35:36.637Z</time>
      </trkpt>
      <trkpt lat="46.21021" lon="6.13723">
        <ele>405.5</ele>
        <time>2020-05-07T12:35:38.664Z</time>
      </trkpt>
      <trkpt lat="46.21017" lon="6.13734">
        <ele>405.3</ele>
        <time>2020-05-07T12:35:39.749Z</time>
      </trkpt>
      <trkpt lat="46.21013" lon="6.13744">
        <ele>405.2</ele>
        <time>2020-05-07T12:35:40.896Z</time>
      </trkpt>
      <trkpt lat="46.21009" lon="6.13755">
        <ele>404.3</ele>
        <time>2020-05-07T12:35:41.690Z</time>
      </trkpt>
      <trkpt lat="46.21005" lon="6.13768">
        <ele>403.9</ele>
        <time>2020-05-07T12:35:42.728Z</time>
      </trkpt>
      <trkpt lat="46.20965" lon="6.13862">
        <ele>400.5</ele>
        <time>2020-05-07T12:35:50.493Z</time>
      </trkpt>
      <trkpt lat="46.20962" lon="6.13867">
        <ele>400.4</ele>
        <time>2020-05-07T12:35:51.080Z</time>
      </trkpt>
      <trkpt lat="46.20956" lon="6.13874">
        <ele>400.2</ele>
        <time>2020-05-07T12:35:52.024Z</time>
      </trkpt>
      <trkpt lat="46.20949" lon="6.13885">
        <ele>399.9</ele>
        <time>2020-05-07T12:35:53.248Z</time>
      </trkpt>
      <trkpt lat="46.20941" lon="6.13897">
        <ele>399.4</ele>
        <time>2020-05-07T12:35:54.433Z</time>
      </trkpt>
      <trkpt lat="46.20902" lon="6.13974">
        <ele>392.3</ele>
        <time>2020-05-07T12:36:00.533Z</time>
      </trkpt>
      <trkpt lat="46.20887" lon="6.13993">
        <ele>391.8</ele>
        <time>2020-05-07T12:36:02.998Z</time>
      </trkpt>
      <trkpt lat="46.2086" lon="6.14041">
        <ele>390.2</ele>
        <time>2020-05-07T12:36:07.653Z</time>
      </trkpt>
      <trkpt lat="46.20856" lon="6.1405">
        <ele>390.2</ele>
        <time>2020-05-07T12:36:09.068Z</time>
      </trkpt>
      <trkpt lat="46.20852" lon="6.1406">
        <ele>390</ele>
        <time>2020-05-07T12:36:10.056Z</time>
      </trkpt>
      <trkpt lat="46.20849" lon="6.14068">
        <ele>389.9</ele>
        <time>2020-05-07T12:36:10.922Z</time>
      </trkpt>
      <trkpt lat="46.20847" lon="6.14078">
        <ele>389.7</ele>
        <time>2020-05-07T12:36:11.787Z</time>
      </trkpt>
      <trkpt lat="46.20846" lon="6.14091">
        <ele>390</ele>
        <time>2020-05-07T12:36:14.270Z</time>
      </trkpt>
      <trkpt lat="46.20842" lon="6.1413">
        <ele>390.7</ele>
        <time>2020-05-07T12:36:21.086Z</time>
      </trkpt>
      <trkpt lat="46.20829" lon="6.14205">
        <ele>390.2</ele>
        <time>2020-05-07T12:36:29.091Z</time>
      </trkpt>
      <trkpt lat="46.20826" lon="6.14223">
        <ele>390</ele>
        <time>2020-05-07T12:36:30.860Z</time>
      </trkpt>
      <trkpt lat="46.20823" lon="6.14231">
        <ele>389.9</ele>
        <time>2020-05-07T12:36:31.726Z</time>
      </trkpt>
      <trkpt lat="46.20819" lon="6.14236">
        <ele>389.9</ele>
        <time>2020-05-07T12:36:32.737Z</time>
      </trkpt>
      <trkpt lat="46.20814" lon="6.1424">
        <ele>390</ele>
        <time>2020-05-07T12:36:34.037Z</time>
      </trkpt>
      <trkpt lat="46.2081" lon="6.14243">
        <ele>390.1</ele>
        <time>2020-05-07T12:36:35.118Z</time>
      </trkpt>
      <trkpt lat="46.20806" lon="6.14244">
        <ele>390.2</ele>
        <time>2020-05-07T12:36:36.120Z</time>
      </trkpt>
      <trkpt lat="46.208" lon="6.14244">
        <ele>390.4</ele>
        <time>2020-05-07T12:36:37.770Z</time>
      </trkpt>
      <trkpt lat="46.20791" lon="6.1424">
        <ele>390.7</ele>
        <time>2020-05-07T12:36:40.311Z</time>
      </trkpt>
      <trkpt lat="46.20776" lon="6.1423">
        <ele>391</ele>
        <time>2020-05-07T12:36:44.098Z</time>
      </trkpt>
      <trkpt lat="46.20773" lon="6.14227">
        <ele>391</ele>
        <time>2020-05-07T12:36:44.795Z</time>
      </trkpt>
      <trkpt lat="46.20769" lon="6.14222">
        <ele>391</ele>
        <time>2020-05-07T12:36:45.805Z</time>
      </trkpt>
      <trkpt lat="46.20767" lon="6.14219">
        <ele>391</ele>
        <time>2020-05-07T12:36:46.356Z</time>
      </trkpt>
      <trkpt lat="46.20763" lon="6.14216">
        <ele>391</ele>
        <time>2020-05-07T12:36:47.217Z</time>
      </trkpt>
      <trkpt lat="46.20723" lon="6.14194">
        <ele>390.8</ele>
        <time>2020-05-07T12:36:54.849Z</time>
      </trkpt>
      <trkpt lat="46.2072" lon="6.14193">
        <ele>390.8</ele>
        <time>2020-05-07T12:36:55.438Z</time>
      </trkpt>
      <trkpt lat="46.20717" lon="6.14194">
        <ele>390.8</ele>
        <time>2020-05-07T12:36:56.026Z</time>
      </trkpt>
      <trkpt lat="46.20715" lon="6.14196">
        <ele>390.8</ele>
        <time>2020-05-07T12:36:56.491Z</time>
      </trkpt>
      <trkpt lat="46.20712" lon="6.14199">
        <ele>390.9</ele>
        <time>2020-05-07T12:36:57.422Z</time>
      </trkpt>
      <trkpt lat="46.20708" lon="6.14202">
        <ele>390.9</ele>
        <time>2020-05-07T12:36:58.283Z</time>
      </trkpt>
      <trkpt lat="46.20704" lon="6.14207">
        <ele>390.9</ele>
        <time>2020-05-07T12:36:59.294Z</time>
      </trkpt>
      <trkpt lat="46.207" lon="6.1421">
        <ele>391</ele>
        <time>2020-05-07T12:37:00.374Z</time>
      </trkpt>
      <trkpt lat="46.20581" lon="6.1429">
        <ele>381.1</ele>
        <time>2020-05-07T12:37:12.497Z</time>
      </trkpt>
      <trkpt lat="46.20566" lon="6.14299">
        <ele>380.9</ele>
        <time>2020-05-07T12:37:14.834Z</time>
      </trkpt>
      <trkpt lat="46.20562" lon="6.14301">
        <ele>380.8</ele>
        <time>2020-05-07T12:37:15.366Z</time>
      </trkpt>
      <trkpt lat="46.20555" lon="6.14298">
        <ele>380.4</ele>
        <time>2020-05-07T12:37:16.045Z</time>
      </trkpt>
      <trkpt lat="46.2055" lon="6.14293">
        <ele>380.1</ele>
        <time>2020-05-07T12:37:16.637Z</time>
      </trkpt>
      <trkpt lat="46.20538" lon="6.14283">
        <ele>379.4</ele>
        <time>2020-05-07T12:37:17.973Z</time>
      </trkpt>
      <trkpt lat="46.20535" lon="6.14281">
        <ele>379.2</ele>
        <time>2020-05-07T12:37:18.266Z</time>
      </trkpt>
      <trkpt lat="46.20531" lon="6.1428">
        <ele>379</ele>
        <time>2020-05-07T12:37:18.661Z</time>
      </trkpt>
      <trkpt lat="46.20527" lon="6.14281">
        <ele>378.8</ele>
        <time>2020-05-07T12:37:19.057Z</time>
      </trkpt>
      <trkpt lat="46.20515" lon="6.14286">
        <ele>378.5</ele>
        <time>2020-05-07T12:37:20.619Z</time>
      </trkpt>
      <trkpt lat="46.20459" lon="6.14315">
        <ele>378.2</ele>
        <time>2020-05-07T12:37:31.171Z</time>
      </trkpt>
      <trkpt lat="46.20455" lon="6.14315">
        <ele>378.3</ele>
        <time>2020-05-07T12:37:32.162Z</time>
      </trkpt>
      <trkpt lat="46.20451" lon="6.14314">
        <ele>378.4</ele>
        <time>2020-05-07T12:37:33.164Z</time>
      </trkpt>
      <trkpt lat="46.20447" lon="6.14312">
        <ele>378.4</ele>
        <time>2020-05-07T12:37:33.972Z</time>
      </trkpt>
      <trkpt lat="46.20444" lon="6.14308">
        <ele>378.4</ele>
        <time>2020-05-07T12:37:34.753Z</time>
      </trkpt>
      <trkpt lat="46.20443" lon="6.14305">
        <ele>378.4</ele>
        <time>2020-05-07T12:37:35.193Z</time>
      </trkpt>
      <trkpt lat="46.20441" lon="6.14299">
        <ele>378.3</ele>
        <time>2020-05-07T12:37:35.785Z</time>
      </trkpt>
      <trkpt lat="46.20436" lon="6.14277">
        <ele>377.9</ele>
        <time>2020-05-07T12:37:37.767Z</time>
      </trkpt>
      <trkpt lat="46.20423" lon="6.1421">
        <ele>375.7</ele>
        <time>2020-05-07T12:37:42.613Z</time>
      </trkpt>
      <trkpt lat="46.20421" lon="6.142">
        <ele>375.5</ele>
        <time>2020-05-07T12:37:43.477Z</time>
      </trkpt>
      <trkpt lat="46.20419" lon="6.14195">
        <ele>375.4</ele>
        <time>2020-05-07T12:37:43.972Z</time>
      </trkpt>
      <trkpt lat="46.20415" lon="6.14192">
        <ele>378.7</ele>
        <time>2020-05-07T12:37:47.293Z</time>
      </trkpt>
      <trkpt lat="46.20413" lon="6.14192">
        <ele>378.8</ele>
        <time>2020-05-07T12:37:47.962Z</time>
      </trkpt>
      <trkpt lat="46.20412" lon="6.14192">
        <ele>378.8</ele>
        <time>2020-05-07T12:37:48.153Z</time>
      </trkpt>
      <trkpt lat="46.20409" lon="6.14193">
        <ele>379</ele>
        <time>2020-05-07T12:37:49.293Z</time>
      </trkpt>
      <trkpt lat="46.20406" lon="6.14195">
        <ele>379.2</ele>
        <time>2020-05-07T12:37:50.479Z</time>
      </trkpt>
      <trkpt lat="46.204" lon="6.14199">
        <ele>379.7</ele>
        <time>2020-05-07T12:37:53.133Z</time>
      </trkpt>
      <trkpt lat="46.20379" lon="6.14224">
        <ele>381.1</ele>
        <time>2020-05-07T12:38:02.312Z</time>
      </trkpt>
      <trkpt lat="46.20366" lon="6.1424">
        <ele>382.2</ele>
        <time>2020-05-07T12:38:08.613Z</time>
      </trkpt>
      <trkpt lat="46.20361" lon="6.14245">
        <ele>382.6</ele>
        <time>2020-05-07T12:38:10.879Z</time>
      </trkpt>
      <trkpt lat="46.20356" lon="6.14249">
        <ele>383.1</ele>
        <time>2020-05-07T12:38:13.410Z</time>
      </trkpt>
      <trkpt lat="46.20342" lon="6.14254">
        <ele>385.5</ele>
        <time>2020-05-07T12:38:24.039Z</time>
      </trkpt>
      <trkpt lat="46.20292" lon="6.14276">
        <ele>388</ele>
        <time>2020-05-07T12:38:41.258Z</time>
      </trkpt>
      <trkpt lat="46.20238" lon="6.143">
        <ele>386.6</ele>
        <time>2020-05-07T12:38:48.263Z</time>
      </trkpt>
      <trkpt lat="46.20193" lon="6.14317">
        <ele>385.4</ele>
        <time>2020-05-07T12:38:53.965Z</time>
      </trkpt>
      <trkpt lat="46.20151" lon="6.14332">
        <ele>382.8</ele>
        <time>2020-05-07T12:38:57.817Z</time>
      </trkpt>
      <trkpt lat="46.20148" lon="6.14333">
        <ele>382.8</ele>
        <time>2020-05-07T12:38:58.406Z</time>
      </trkpt>
      <trkpt lat="46.20145" lon="6.14336">
        <ele>383.4</ele>
        <time>2020-05-07T12:39:01.095Z</time>
      </trkpt>
      <trkpt lat="46.20142" lon="6.14339">
        <ele>383.5</ele>
        <time>2020-05-07T12:39:02.026Z</time>
      </trkpt>
      <trkpt lat="46.20138" lon="6.14346">
        <ele>383.5</ele>
        <time>2020-05-07T12:39:03.226Z</time>
      </trkpt>
      <trkpt lat="46.20134" lon="6.14353">
        <ele>383.6</ele>
        <time>2020-05-07T12:39:04.632Z</time>
      </trkpt>
      <trkpt lat="46.20131" lon="6.14359">
        <ele>383.7</ele>
        <time>2020-05-07T12:39:05.824Z</time>
      </trkpt>
      <trkpt lat="46.20127" lon="6.14371">
        <ele>383.9</ele>
        <time>2020-05-07T12:39:08.022Z</time>
      </trkpt>
      <trkpt lat="46.20124" lon="6.14385">
        <ele>384.3</ele>
        <time>2020-05-07T12:39:11.056Z</time>
      </trkpt>
      <trkpt lat="46.20116" lon="6.14416">
        <ele>384.3</ele>
        <time>2020-05-07T12:39:15.432Z</time>
      </trkpt>
      <trkpt lat="46.20113" lon="6.14427">
        <ele>389.4</ele>
        <time>2020-05-07T12:39:21.463Z</time>
      </trkpt>
      <trkpt lat="46.2011" lon="6.14437">
        <ele>389.7</ele>
        <time>2020-05-07T12:39:23.731Z</time>
      </trkpt>
      <trkpt lat="46.20107" lon="6.14446">
        <ele>390.3</ele>
        <time>2020-05-07T12:39:26.774Z</time>
      </trkpt>
      <trkpt lat="46.20104" lon="6.14455">
        <ele>390.8</ele>
        <time>2020-05-07T12:39:29.480Z</time>
      </trkpt>
      <trkpt lat="46.20097" lon="6.14469">
        <ele>391.4</ele>
        <time>2020-05-07T12:39:33.479Z</time>
      </trkpt>
      <trkpt lat="46.20064" lon="6.14537">
        <ele>393</ele>
        <time>2020-05-07T12:39:48.222Z</time>
      </trkpt>
      <trkpt lat="46.20018" lon="6.14633">
        <ele>401.2</ele>
        <time>2020-05-07T12:40:28.963Z</time>
      </trkpt>
      <trkpt lat="46.19986" lon="6.14704">
        <ele>400.2</ele>
        <time>2020-05-07T12:40:36.915Z</time>
      </trkpt>
      <trkpt lat="46.19981" lon="6.14713">
        <ele>400.3</ele>
        <time>2020-05-07T12:40:38.639Z</time>
      </trkpt>
      <trkpt lat="46.19977" lon="6.14719">
        <ele>400.4</ele>
        <time>2020-05-07T12:40:39.949Z</time>
      </trkpt>
      <trkpt lat="46.19971" lon="6.14726">
        <ele>400.2</ele>
        <time>2020-05-07T12:40:40.893Z</time>
      </trkpt>
      <trkpt lat="46.19965" lon="6.1473">
        <ele>399.7</ele>
        <time>2020-05-07T12:40:41.504Z</time>
      </trkpt>
      <trkpt lat="46.19954" lon="6.14735">
        <ele>398.5</ele>
        <time>2020-05-07T12:40:42.569Z</time>
      </trkpt>
      <trkpt lat="46.1994" lon="6.14741">
        <ele>396.8</ele>
        <time>2020-05-07T12:40:43.918Z</time>
      </trkpt>
      <trkpt lat="46.19933" lon="6.14744">
        <ele>395.9</ele>
        <time>2020-05-07T12:40:44.592Z</time>
      </trkpt>
      <trkpt lat="46.19923" lon="6.14752">
        <ele>395.4</ele>
        <time>2020-05-07T12:40:45.763Z</time>
      </trkpt>
      <trkpt lat="46.19892" lon="6.14773">
        <ele>395.1</ele>
        <time>2020-05-07T12:40:50.926Z</time>
      </trkpt>
      <trkpt lat="46.19882" lon="6.14781">
        <ele>395.4</ele>
        <time>2020-05-07T12:40:53.801Z</time>
      </trkpt>
      <trkpt lat="46.19878" lon="6.14784">
        <ele>395.5</ele>
        <time>2020-05-07T12:40:54.882Z</time>
      </trkpt>
      <trkpt lat="46.19873" lon="6.14791">
        <ele>395.7</ele>
        <time>2020-05-07T12:40:56.688Z</time>
      </trkpt>
      <trkpt lat="46.19865" lon="6.14801">
        <ele>395.9</ele>
        <time>2020-05-07T12:40:59.132Z</time>
      </trkpt>
      <trkpt lat="46.19854" lon="6.14818">
        <ele>396.4</ele>
        <time>2020-05-07T12:41:03.433Z</time>
      </trkpt>
      <trkpt lat="46.19838" lon="6.14844">
        <ele>398.5</ele>
        <time>2020-05-07T12:41:14.073Z</time>
      </trkpt>
      <trkpt lat="46.19813" lon="6.14882">
        <ele>396.8</ele>
        <time>2020-05-07T12:41:17.686Z</time>
      </trkpt>
      <trkpt lat="46.19812" lon="6.14884">
        <ele>396.8</ele>
        <time>2020-05-07T12:41:18.013Z</time>
      </trkpt>
      <trkpt lat="46.19809" lon="6.14886">
        <ele>396.8</ele>
        <time>2020-05-07T12:41:18.644Z</time>
      </trkpt>
      <trkpt lat="46.19806" lon="6.14886">
        <ele>396.7</ele>
        <time>2020-05-07T12:41:18.984Z</time>
      </trkpt>
      <trkpt lat="46.19804" lon="6.14885">
        <ele>396.6</ele>
        <time>2020-05-07T12:41:19.194Z</time>
      </trkpt>
      <trkpt lat="46.19801" lon="6.14884">
        <ele>396.5</ele>
        <time>2020-05-07T12:41:19.545Z</time>
      </trkpt>
      <trkpt lat="46.19798" lon="6.14882">
        <ele>396.5</ele>
        <time>2020-05-07T12:41:20.177Z</time>
      </trkpt>
      <trkpt lat="46.19795" lon="6.14878">
        <ele>396.3</ele>
        <time>2020-05-07T12:41:20.575Z</time>
      </trkpt>
      <trkpt lat="46.19777" lon="6.14854">
        <ele>395.7</ele>
        <time>2020-05-07T12:41:23.622Z</time>
      </trkpt>
      <trkpt lat="46.19768" lon="6.14841">
        <ele>395.2</ele>
        <time>2020-05-07T12:41:24.981Z</time>
      </trkpt>
      <trkpt lat="46.19765" lon="6.14838">
        <ele>395</ele>
        <time>2020-05-07T12:41:25.320Z</time>
      </trkpt>
      <trkpt lat="46.19761" lon="6.14838">
        <ele>394.8</ele>
        <time>2020-05-07T12:41:25.707Z</time>
      </trkpt>
      <trkpt lat="46.19758" lon="6.1484">
        <ele>394.8</ele>
        <time>2020-05-07T12:41:26.338Z</time>
      </trkpt>
      <trkpt lat="46.19753" lon="6.14845">
        <ele>394.8</ele>
        <time>2020-05-07T12:41:27.500Z</time>
      </trkpt>
      <trkpt lat="46.19741" lon="6.14864">
        <ele>395.3</ele>
        <time>2020-05-07T12:41:32.081Z</time>
      </trkpt>
      <trkpt lat="46.19708" lon="6.14912">
        <ele>396.6</ele>
        <time>2020-05-07T12:41:44.080Z</time>
      </trkpt>
      <trkpt lat="46.19666" lon="6.14976">
        <ele>405.7</ele>
        <time>2020-05-07T12:42:29.073Z</time>
      </trkpt>
      <trkpt lat="46.19661" lon="6.14981">
        <ele>405.9</ele>
        <time>2020-05-07T12:42:30.736Z</time>
      </trkpt>
      <trkpt lat="46.19657" lon="6.14985">
        <ele>406</ele>
        <time>2020-05-07T12:42:31.881Z</time>
      </trkpt>
      <trkpt lat="46.19653" lon="6.14988">
        <ele>406.1</ele>
        <time>2020-05-07T12:42:32.962Z</time>
      </trkpt>
      <trkpt lat="46.1963" lon="6.14991">
        <ele>406.9</ele>
        <time>2020-05-07T12:42:39.426Z</time>
      </trkpt>
      <trkpt lat="46.19623" lon="6.14993">
        <ele>407.3</ele>
        <time>2020-05-07T12:42:41.909Z</time>
      </trkpt>
      <trkpt lat="46.1962" lon="6.14996">
        <ele>407.5</ele>
        <time>2020-05-07T12:42:43.168Z</time>
      </trkpt>
      <trkpt lat="46.19619" lon="6.14996">
        <ele>407.6</ele>
        <time>2020-05-07T12:42:43.664Z</time>
      </trkpt>
      <trkpt lat="46.19614" lon="6.15001">
        <ele>408.1</ele>
        <time>2020-05-07T12:42:46.240Z</time>
      </trkpt>
      <trkpt lat="46.1961" lon="6.15006">
        <ele>408.3</ele>
        <time>2020-05-07T12:42:47.786Z</time>
      </trkpt>
      <trkpt lat="46.19598" lon="6.15023">
        <ele>408.3</ele>
        <time>2020-05-07T12:42:50.998Z</time>
      </trkpt>
      <trkpt lat="46.19577" lon="6.15055">
        <ele>406.4</ele>
        <time>2020-05-07T12:42:53.670Z</time>
      </trkpt>
      <trkpt lat="46.19572" lon="6.15062">
        <ele>406.2</ele>
        <time>2020-05-07T12:42:54.497Z</time>
      </trkpt>
      <trkpt lat="46.19565" lon="6.15069">
        <ele>406.1</ele>
        <time>2020-05-07T12:42:55.731Z</time>
      </trkpt>
      <trkpt lat="46.19565" lon="6.15069">
        <ele>406.1</ele>
        <time>2020-05-07T12:42:55.731Z</time>
      </trkpt>
      <trkpt lat="46.19565" lon="6.1507">
        <ele>406.1</ele>
        <time>2020-05-07T12:42:55.863Z</time>
      </trkpt>
      <trkpt lat="46.19555" lon="6.1508">
        <ele>405.9</ele>
        <time>2020-05-07T12:42:57.525Z</time>
      </trkpt>
      <trkpt lat="46.19544" lon="6.15088">
        <ele>406</ele>
        <time>2020-05-07T12:43:00.067Z</time>
      </trkpt>
      <trkpt lat="46.19507" lon="6.1512">
        <ele>405.9</ele>
        <time>2020-05-07T12:43:08.025Z</time>
      </trkpt>
      <trkpt lat="46.19498" lon="6.1513">
        <ele>405.1</ele>
        <time>2020-05-07T12:43:09.074Z</time>
      </trkpt>
      <trkpt lat="46.1949" lon="6.15138">
        <ele>405.2</ele>
        <time>2020-05-07T12:43:11.126Z</time>
      </trkpt>
      <trkpt lat="46.19483" lon="6.15147">
        <ele>405.3</ele>
        <time>2020-05-07T12:43:13.111Z</time>
      </trkpt>
      <trkpt lat="46.19475" lon="6.15157">
        <ele>405.4</ele>
        <time>2020-05-07T12:43:15.324Z</time>
      </trkpt>
      <trkpt lat="46.19468" lon="6.15168">
        <ele>407.4</ele>
        <time>2020-05-07T12:43:22.947Z</time>
      </trkpt>
      <trkpt lat="46.19458" lon="6.15183">
        <ele>407.7</ele>
        <time>2020-05-07T12:43:26.350Z</time>
      </trkpt>
      <trkpt lat="46.19449" lon="6.152">
        <ele>408</ele>
        <time>2020-05-07T12:43:29.826Z</time>
      </trkpt>
      <trkpt lat="46.1944" lon="6.15218">
        <ele>408.2</ele>
        <time>2020-05-07T12:43:33.160Z</time>
      </trkpt>
      <trkpt lat="46.1942" lon="6.15266">
        <ele>409.9</ele>
        <time>2020-05-07T12:43:45.543Z</time>
      </trkpt>
      <trkpt lat="46.19401" lon="6.15312">
        <ele>411.7</ele>
        <time>2020-05-07T12:43:57.815Z</time>
      </trkpt>
      <trkpt lat="46.1939" lon="6.15334">
        <ele>413.3</ele>
        <time>2020-05-07T12:44:05.971Z</time>
      </trkpt>
      <trkpt lat="46.19383" lon="6.15349">
        <ele>413.7</ele>
        <time>2020-05-07T12:44:09.354Z</time>
      </trkpt>
      <trkpt lat="46.19377" lon="6.15358">
        <ele>413.9</ele>
        <time>2020-05-07T12:44:11.451Z</time>
      </trkpt>
      <trkpt lat="46.19373" lon="6.15363">
        <ele>414</ele>
        <time>2020-05-07T12:44:12.673Z</time>
      </trkpt>
      <trkpt lat="46.19368" lon="6.15366">
        <ele>414.1</ele>
        <time>2020-05-07T12:44:13.919Z</time>
      </trkpt>
      <trkpt lat="46.19362" lon="6.15368">
        <ele>414.2</ele>
        <time>2020-05-07T12:44:15.301Z</time>
      </trkpt>
      <trkpt lat="46.19354" lon="6.1537">
        <ele>414.3</ele>
        <time>2020-05-07T12:44:17.050Z</time>
      </trkpt>
      <trkpt lat="46.19346" lon="6.15371">
        <ele>414.4</ele>
        <time>2020-05-07T12:44:18.782Z</time>
      </trkpt>
      <trkpt lat="46.19328" lon="6.1537">
        <ele>415.6</ele>
        <time>2020-05-07T12:44:25.536Z</time>
      </trkpt>
      <trkpt lat="46.19317" lon="6.15369">
        <ele>415.7</ele>
        <time>2020-05-07T12:44:27.833Z</time>
      </trkpt>
      <trkpt lat="46.19308" lon="6.15367">
        <ele>415.8</ele>
        <time>2020-05-07T12:44:29.767Z</time>
      </trkpt>
      <trkpt lat="46.19301" lon="6.15364">
        <ele>415.9</ele>
        <time>2020-05-07T12:44:31.363Z</time>
      </trkpt>
      <trkpt lat="46.19282" lon="6.15357">
        <ele>416.2</ele>
        <time>2020-05-07T12:44:35.720Z</time>
      </trkpt>
      <trkpt lat="46.19264" lon="6.15349">
        <ele>416.5</ele>
        <time>2020-05-07T12:44:39.934Z</time>
      </trkpt>
      <trkpt lat="46.19254" lon="6.15344">
        <ele>416.7</ele>
        <time>2020-05-07T12:44:42.379Z</time>
      </trkpt>
      <trkpt lat="46.19236" lon="6.15336">
        <ele>418</ele>
        <time>2020-05-07T12:44:49.568Z</time>
      </trkpt>
      <trkpt lat="46.19192" lon="6.15317">
        <ele>419</ele>
        <time>2020-05-07T12:45:00.530Z</time>
      </trkpt>
      <trkpt lat="46.19177" lon="6.15312">
        <ele>419.3</ele>
        <time>2020-05-07T12:45:04.110Z</time>
      </trkpt>
      <trkpt lat="46.19161" lon="6.15308">
        <ele>421.6</ele>
        <time>2020-05-07T12:45:16.078Z</time>
      </trkpt>
      <trkpt lat="46.19143" lon="6.15301">
        <ele>422.2</ele>
        <time>2020-05-07T12:45:21.130Z</time>
      </trkpt>
      <trkpt lat="46.19116" lon="6.15289">
        <ele>423</ele>
        <time>2020-05-07T12:45:28.418Z</time>
      </trkpt>
      <trkpt lat="46.19082" lon="6.15274">
        <ele>425.7</ele>
        <time>2020-05-07T12:45:42.730Z</time>
      </trkpt>
      <trkpt lat="46.19032" lon="6.15255">
        <ele>426.6</ele>
        <time>2020-05-07T12:45:54.483Z</time>
      </trkpt>
      <trkpt lat="46.19002" lon="6.15244">
        <ele>424.7</ele>
        <time>2020-05-07T12:45:57.211Z</time>
      </trkpt>
      <trkpt lat="46.18979" lon="6.15237">
        <ele>423.7</ele>
        <time>2020-05-07T12:45:59.645Z</time>
      </trkpt>
      <trkpt lat="46.18942" lon="6.15226">
        <ele>423.1</ele>
        <time>2020-05-07T12:46:04.842Z</time>
      </trkpt>
      <trkpt lat="46.18909" lon="6.15219">
        <ele>423.7</ele>
        <time>2020-05-07T12:46:12.473Z</time>
      </trkpt>
      <trkpt lat="46.18904" lon="6.15218">
        <ele>423.7</ele>
        <time>2020-05-07T12:46:13.437Z</time>
      </trkpt>
      <trkpt lat="46.189" lon="6.1522">
        <ele>423.8</ele>
        <time>2020-05-07T12:46:14.470Z</time>
      </trkpt>
      <trkpt lat="46.18896" lon="6.15223">
        <ele>424</ele>
        <time>2020-05-07T12:46:15.921Z</time>
      </trkpt>
      <trkpt lat="46.18893" lon="6.15228">
        <ele>424.3</ele>
        <time>2020-05-07T12:46:17.624Z</time>
      </trkpt>
      <trkpt lat="46.18882" lon="6.15253">
        <ele>428.7</ele>
        <time>2020-05-07T12:46:32.739Z</time>
      </trkpt>
      <trkpt lat="46.18841" lon="6.15352">
        <ele>429</ele>
        <time>2020-05-07T12:46:48.543Z</time>
      </trkpt>
      <trkpt lat="46.18794" lon="6.15453">
        <ele>428.7</ele>
        <time>2020-05-07T12:47:03.809Z</time>
      </trkpt>
      <trkpt lat="46.18788" lon="6.15468">
        <ele>428.8</ele>
        <time>2020-05-07T12:47:06.291Z</time>
      </trkpt>
      <trkpt lat="46.18787" lon="6.15471">
        <ele>428.9</ele>
        <time>2020-05-07T12:47:07.021Z</time>
      </trkpt>
      <trkpt lat="46.18787" lon="6.15474">
        <ele>428.9</ele>
        <time>2020-05-07T12:47:07.418Z</time>
      </trkpt>
      <trkpt lat="46.18789" lon="6.15477">
        <ele>428.9</ele>
        <time>2020-05-07T12:47:07.969Z</time>
      </trkpt>
      <trkpt lat="46.18792" lon="6.15482">
        <ele>428.8</ele>
        <time>2020-05-07T12:47:08.556Z</time>
      </trkpt>
      <trkpt lat="46.18796" lon="6.15487">
        <ele>428.7</ele>
        <time>2020-05-07T12:47:09.258Z</time>
      </trkpt>
      <trkpt lat="46.18881" lon="6.15574">
        <ele>426.7</ele>
        <time>2020-05-07T12:47:23.027Z</time>
      </trkpt>
      <trkpt lat="46.18932" lon="6.15625">
        <ele>426</ele>
        <time>2020-05-07T12:47:32.072Z</time>
      </trkpt>
      <trkpt lat="46.18934" lon="6.15629">
        <ele>426</ele>
        <time>2020-05-07T12:47:32.725Z</time>
      </trkpt>
      <trkpt lat="46.18935" lon="6.15633">
        <ele>426.1</ele>
        <time>2020-05-07T12:47:33.542Z</time>
      </trkpt>
      <trkpt lat="46.18935" lon="6.15637">
        <ele>426.2</ele>
        <time>2020-05-07T12:47:34.332Z</time>
      </trkpt>
      <trkpt lat="46.18933" lon="6.15642">
        <ele>426.3</ele>
        <time>2020-05-07T12:47:35.323Z</time>
      </trkpt>
      <trkpt lat="46.1893" lon="6.15648">
        <ele>426.6</ele>
        <time>2020-05-07T12:47:37.137Z</time>
      </trkpt>
      <trkpt lat="46.18925" lon="6.15654">
        <ele>426.9</ele>
        <time>2020-05-07T12:47:39.255Z</time>
      </trkpt>
      <trkpt lat="46.18913" lon="6.15666">
        <ele>427.9</ele>
        <time>2020-05-07T12:47:44.805Z</time>
      </trkpt>
      <trkpt lat="46.18827" lon="6.15774">
        <ele>430.1</ele>
        <time>2020-05-07T12:48:11.259Z</time>
      </trkpt>
      <trkpt lat="46.18791" lon="6.15825">
        <ele>430.3</ele>
        <time>2020-05-07T12:48:21.257Z</time>
      </trkpt>
      <trkpt lat="46.18752" lon="6.15879">
        <ele>429.6</ele>
        <time>2020-05-07T12:48:28.967Z</time>
      </trkpt>
      <trkpt lat="46.18735" lon="6.159">
        <ele>427.9</ele>
        <time>2020-05-07T12:48:31.033Z</time>
      </trkpt>
      <trkpt lat="46.18723" lon="6.1591">
        <ele>427.5</ele>
        <time>2020-05-07T12:48:32.676Z</time>
      </trkpt>
      <trkpt lat="46.1871" lon="6.15924">
        <ele>425.6</ele>
        <time>2020-05-07T12:48:34.174Z</time>
      </trkpt>
    </trkseg>
  </trk>
</gpx>